sensor_id;sensor_type;location;lat;lon;timestamp;temperature;humidity
23609;DHT22;11982;50.810;4.442;2022-09-03T00:01:07;18.30;99.90
23609;DHT22;11982;50.810;4.442;2022-09-03T00:03:46;18.30;99.90
23609;DHT22;11982;50.810;4.442;2022-09-03T00:06:39;18.50;99.90
23609;DHT22;11982;50.810;4.442;2022-09-03T00:15:11;18.50;99.90
23609;DHT22;11982;50.810;4.442;2022-09-03T00:20:16;18.20;99.90
23609;DHT22;11982;50.810;4.442;2022-09-03T00:22:49;18.30;99.90
23609;DHT22;11982;50.810;4.442;2022-09-03T00:25:26;18.40;99.90
23609;DHT22;11982;50.810;4.442;2022-09-03T00:27:56;18.40;99.90
23609;DHT22;11982;50.810;4.442;2022-09-03T00:30:22;18.40;99.90
23609;DHT22;11982;50.810;4.442;2022-09-03T00:33:00;18.40;99.90
23609;DHT22;11982;50.810;4.442;2022-09-03T00:35:46;18.20;99.90
23609;DHT22;11982;50.810;4.442;2022-09-03T00:38:13;18.10;99.90
23609;DHT22;11982;50.810;4.442;2022-09-03T00:43:34;18.20;99.90
23609;DHT22;11982;50.810;4.442;2022-09-03T00:46:46;18.40;99.90
23609;DHT22;11982;50.810;4.442;2022-09-03T00:51:59;18.60;99.90
23609;DHT22;11982;50.810;4.442;2022-09-03T01:00:14;18.60;99.90
23609;DHT22;11982;50.810;4.442;2022-09-03T01:03:05;18.60;99.90
23609;DHT22;11982;50.810;4.442;2022-09-03T01:17:29;18.40;99.90
23609;DHT22;11982;50.810;4.442;2022-09-03T01:34:44;18.50;99.90
23609;DHT22;11982;50.810;4.442;2022-09-03T01:37:37;18.60;99.90
23609;DHT22;11982;50.810;4.442;2022-09-03T01:50:47;18.60;99.90
23609;DHT22;11982;50.810;4.442;2022-09-03T01:53:59;18.80;99.90
23609;DHT22;11982;50.810;4.442;2022-09-03T01:59:48;18.80;99.90
23609;DHT22;11982;50.810;4.442;2022-09-03T02:02:23;18.60;99.90
23609;DHT22;11982;50.810;4.442;2022-09-03T02:05:11;18.60;99.90
23609;DHT22;11982;50.810;4.442;2022-09-03T02:07:45;18.70;99.90
23609;DHT22;11982;50.810;4.442;2022-09-03T02:10:14;18.70;99.90
23609;DHT22;11982;50.810;4.442;2022-09-03T02:12:45;18.70;99.90
23609;DHT22;11982;50.810;4.442;2022-09-03T02:15:16;18.60;99.90
23609;DHT22;11982;50.810;4.442;2022-09-03T02:17:44;18.70;99.90
23609;DHT22;11982;50.810;4.442;2022-09-03T02:20:15;18.60;99.90
23609;DHT22;11982;50.810;4.442;2022-09-03T02:22:45;18.50;99.90
23609;DHT22;11982;50.810;4.442;2022-09-03T02:25:12;18.50;99.90
23609;DHT22;11982;50.810;4.442;2022-09-03T02:27:38;18.50;99.90
23609;DHT22;11982;50.810;4.442;2022-09-03T02:30:05;18.50;99.90
23609;DHT22;11982;50.810;4.442;2022-09-03T02:32:31;18.40;99.90
23609;DHT22;11982;50.810;4.442;2022-09-03T02:34:57;18.40;99.90
23609;DHT22;11982;50.810;4.442;2022-09-03T02:37:23;18.60;99.90
23609;DHT22;11982;50.810;4.442;2022-09-03T02:39:49;18.70;99.90
23609;DHT22;11982;50.810;4.442;2022-09-03T02:42:16;18.60;99.90
23609;DHT22;11982;50.810;4.442;2022-09-03T02:44:56;18.70;99.90
23609;DHT22;11982;50.810;4.442;2022-09-03T02:47:28;18.70;99.90
23609;DHT22;11982;50.810;4.442;2022-09-03T02:49:55;18.70;99.90
23609;DHT22;11982;50.810;4.442;2022-09-03T02:52:20;18.80;99.90
23609;DHT22;11982;50.810;4.442;2022-09-03T02:54:46;18.90;99.90
23609;DHT22;11982;50.810;4.442;2022-09-03T02:57:14;18.80;99.90
23609;DHT22;11982;50.810;4.442;2022-09-03T02:59:41;18.80;99.90
23609;DHT22;11982;50.810;4.442;2022-09-03T03:02:09;18.90;99.90
23609;DHT22;11982;50.810;4.442;2022-09-03T03:04:35;18.90;99.90
23609;DHT22;11982;50.810;4.442;2022-09-03T03:07:00;18.80;99.90
23609;DHT22;11982;50.810;4.442;2022-09-03T03:09:26;18.80;99.90
23609;DHT22;11982;50.810;4.442;2022-09-03T03:11:52;18.80;99.90
23609;DHT22;11982;50.810;4.442;2022-09-03T03:14:20;18.70;99.90
23609;DHT22;11982;50.810;4.442;2022-09-03T03:16:46;18.50;99.90
23609;DHT22;11982;50.810;4.442;2022-09-03T03:19:12;18.40;99.90
23609;DHT22;11982;50.810;4.442;2022-09-03T03:21:38;18.50;99.90
23609;DHT22;11982;50.810;4.442;2022-09-03T03:24:04;18.50;99.90
23609;DHT22;11982;50.810;4.442;2022-09-03T03:26:30;18.60;99.90
23609;DHT22;11982;50.810;4.442;2022-09-03T03:28:58;18.70;99.90
23609;DHT22;11982;50.810;4.442;2022-09-03T03:31:25;18.60;99.90
23609;DHT22;11982;50.810;4.442;2022-09-03T03:33:56;18.40;99.90
23609;DHT22;11982;50.810;4.442;2022-09-03T03:36:24;18.30;99.90
23609;DHT22;11982;50.810;4.442;2022-09-03T03:38:53;18.20;99.90
23609;DHT22;11982;50.810;4.442;2022-09-03T03:41:23;18.20;99.90
23609;DHT22;11982;50.810;4.442;2022-09-03T03:43:53;17.80;99.90
23609;DHT22;11982;50.810;4.442;2022-09-03T03:46:20;17.80;99.90
23609;DHT22;11982;50.810;4.442;2022-09-03T03:48:50;17.70;99.90
23609;DHT22;11982;50.810;4.442;2022-09-03T03:51:17;17.80;99.90
23609;DHT22;11982;50.810;4.442;2022-09-03T03:53:43;17.80;99.90
23609;DHT22;11982;50.810;4.442;2022-09-03T03:56:11;17.90;99.90
23609;DHT22;11982;50.810;4.442;2022-09-03T03:58:38;17.80;99.90
23609;DHT22;11982;50.810;4.442;2022-09-03T04:01:17;17.60;99.90
23609;DHT22;11982;50.810;4.442;2022-09-03T04:03:43;17.40;99.90
23609;DHT22;11982;50.810;4.442;2022-09-03T04:06:10;17.30;99.90
23609;DHT22;11982;50.810;4.442;2022-09-03T04:08:38;17.30;99.90
23609;DHT22;11982;50.810;4.442;2022-09-03T04:11:07;17.20;99.90
23609;DHT22;11982;50.810;4.442;2022-09-03T04:13:35;17.20;99.90
23609;DHT22;11982;50.810;4.442;2022-09-03T04:16:06;17.10;99.90
23609;DHT22;11982;50.810;4.442;2022-09-03T04:18:33;17.10;99.90
23609;DHT22;11982;50.810;4.442;2022-09-03T04:21:14;17.10;99.90
23609;DHT22;11982;50.810;4.442;2022-09-03T04:23:42;17.10;99.90
23609;DHT22;11982;50.810;4.442;2022-09-03T04:26:09;17.10;99.90
23609;DHT22;11982;50.810;4.442;2022-09-03T04:28:35;17.20;99.90
23609;DHT22;11982;50.810;4.442;2022-09-03T04:31:04;17.30;99.90
23609;DHT22;11982;50.810;4.442;2022-09-03T04:33:31;17.30;99.90
23609;DHT22;11982;50.810;4.442;2022-09-03T04:36:10;17.40;99.90
23609;DHT22;11982;50.810;4.442;2022-09-03T04:38:38;17.00;99.90
23609;DHT22;11982;50.810;4.442;2022-09-03T04:41:08;16.70;99.90
23609;DHT22;11982;50.810;4.442;2022-09-03T04:43:35;16.90;99.90
23609;DHT22;11982;50.810;4.442;2022-09-03T04:46:03;17.00;99.90
23609;DHT22;11982;50.810;4.442;2022-09-03T04:48:30;17.10;99.90
23609;DHT22;11982;50.810;4.442;2022-09-03T04:51:10;17.20;99.90
23609;DHT22;11982;50.810;4.442;2022-09-03T04:53:39;17.10;99.90
23609;DHT22;11982;50.810;4.442;2022-09-03T04:56:16;17.00;99.90
23609;DHT22;11982;50.810;4.442;2022-09-03T04:58:42;17.10;99.90
23609;DHT22;11982;50.810;4.442;2022-09-03T05:01:10;17.20;99.90
23609;DHT22;11982;50.810;4.442;2022-09-03T05:03:36;17.00;99.90
23609;DHT22;11982;50.810;4.442;2022-09-03T05:06:02;17.00;99.90
23609;DHT22;11982;50.810;4.442;2022-09-03T05:08:27;17.10;99.90
23609;DHT22;11982;50.810;4.442;2022-09-03T05:10:59;17.20;99.90
23609;DHT22;11982;50.810;4.442;2022-09-03T05:13:26;17.20;99.90
23609;DHT22;11982;50.810;4.442;2022-09-03T05:16:01;17.00;99.90
23609;DHT22;11982;50.810;4.442;2022-09-03T05:18:28;17.10;99.90
23609;DHT22;11982;50.810;4.442;2022-09-03T05:21:05;17.20;99.90
23609;DHT22;11982;50.810;4.442;2022-09-03T05:23:35;17.30;99.90
23609;DHT22;11982;50.810;4.442;2022-09-03T05:26:03;17.30;99.90
23609;DHT22;11982;50.810;4.442;2022-09-03T05:28:34;17.30;99.90
23609;DHT22;11982;50.810;4.442;2022-09-03T05:33:39;17.40;99.90
23609;DHT22;11982;50.810;4.442;2022-09-03T05:36:08;17.40;99.90
23609;DHT22;11982;50.810;4.442;2022-09-03T05:38:34;17.40;99.90
23609;DHT22;11982;50.810;4.442;2022-09-03T05:41:05;17.40;99.90
23609;DHT22;11982;50.810;4.442;2022-09-03T05:43:31;17.40;99.90
23609;DHT22;11982;50.810;4.442;2022-09-03T05:46:01;17.40;99.90
23609;DHT22;11982;50.810;4.442;2022-09-03T05:48:32;17.30;99.90
23609;DHT22;11982;50.810;4.442;2022-09-03T05:51:09;17.30;99.90
23609;DHT22;11982;50.810;4.442;2022-09-03T05:53:37;17.20;99.90
23609;DHT22;11982;50.810;4.442;2022-09-03T05:56:16;17.10;99.90
23609;DHT22;11982;50.810;4.442;2022-09-03T05:58:44;17.30;99.90
23609;DHT22;11982;50.810;4.442;2022-09-03T06:03:39;17.50;99.90
23609;DHT22;11982;50.810;4.442;2022-09-03T06:06:06;17.50;99.90
23609;DHT22;11982;50.810;4.442;2022-09-03T06:08:33;17.30;99.90
23609;DHT22;11982;50.810;4.442;2022-09-03T06:10:59;17.30;99.90
23609;DHT22;11982;50.810;4.442;2022-09-03T06:13:25;17.30;99.90
23609;DHT22;11982;50.810;4.442;2022-09-03T06:15:58;17.30;99.90
23609;DHT22;11982;50.810;4.442;2022-09-03T06:18:25;17.30;99.90
23609;DHT22;11982;50.810;4.442;2022-09-03T06:20:58;17.40;99.90
23609;DHT22;11982;50.810;4.442;2022-09-03T06:23:25;17.50;99.90
23609;DHT22;11982;50.810;4.442;2022-09-03T06:26:08;17.60;99.90
23609;DHT22;11982;50.810;4.442;2022-09-03T06:28:36;17.70;99.90
23609;DHT22;11982;50.810;4.442;2022-09-03T06:31:04;17.60;99.90
23609;DHT22;11982;50.810;4.442;2022-09-03T06:33:32;17.60;99.90
23609;DHT22;11982;50.810;4.442;2022-09-03T06:35:59;17.70;99.90
23609;DHT22;11982;50.810;4.442;2022-09-03T06:38:27;17.70;99.90
23609;DHT22;11982;50.810;4.442;2022-09-03T06:40:58;17.90;99.90
23609;DHT22;11982;50.810;4.442;2022-09-03T06:43:27;18.00;99.90
23609;DHT22;11982;50.810;4.442;2022-09-03T06:46:01;18.00;99.90
23609;DHT22;11982;50.810;4.442;2022-09-03T06:48:28;18.10;99.90
23609;DHT22;11982;50.810;4.442;2022-09-03T06:53:24;18.40;99.90
23609;DHT22;11982;50.810;4.442;2022-09-03T06:58:46;18.70;99.90
23609;DHT22;11982;50.810;4.442;2022-09-03T07:01:12;18.90;99.90
23609;DHT22;11982;50.810;4.442;2022-09-03T07:03:40;19.00;99.90
23609;DHT22;11982;50.810;4.442;2022-09-03T07:06:11;19.30;99.90
23609;DHT22;11982;50.810;4.442;2022-09-03T07:08:37;19.30;99.90
23609;DHT22;11982;50.810;4.442;2022-09-03T07:11:05;19.50;99.90
23609;DHT22;11982;50.810;4.442;2022-09-03T07:13:38;19.70;99.90
23609;DHT22;11982;50.810;4.442;2022-09-03T07:16:11;19.90;99.90
23609;DHT22;11982;50.810;4.442;2022-09-03T07:18:37;20.00;99.90
23609;DHT22;11982;50.810;4.442;2022-09-03T07:21:08;20.20;99.90
23609;DHT22;11982;50.810;4.442;2022-09-03T07:23:35;20.30;99.90
23609;DHT22;11982;50.810;4.442;2022-09-03T07:26:13;20.40;99.90
23609;DHT22;11982;50.810;4.442;2022-09-03T07:28:40;20.60;99.90
23609;DHT22;11982;50.810;4.442;2022-09-03T07:31:14;20.50;99.90
23609;DHT22;11982;50.810;4.442;2022-09-03T07:33:41;20.70;99.90
23609;DHT22;11982;50.810;4.442;2022-09-03T07:36:11;20.90;99.90
23609;DHT22;11982;50.810;4.442;2022-09-03T07:38:39;21.00;99.90
23609;DHT22;11982;50.810;4.442;2022-09-03T07:41:06;20.90;99.90
23609;DHT22;11982;50.810;4.442;2022-09-03T07:43:38;21.20;99.90
23609;DHT22;11982;50.810;4.442;2022-09-03T07:46:18;21.20;99.90
23609;DHT22;11982;50.810;4.442;2022-09-03T07:48:47;21.30;99.90
23609;DHT22;11982;50.810;4.442;2022-09-03T07:51:13;21.60;99.90
23609;DHT22;11982;50.810;4.442;2022-09-03T07:53:39;21.90;99.90
23609;DHT22;11982;50.810;4.442;2022-09-03T07:56:06;21.80;99.90
23609;DHT22;11982;50.810;4.442;2022-09-03T07:58:34;21.80;99.90
23609;DHT22;11982;50.810;4.442;2022-09-03T08:01:06;22.20;99.90
23609;DHT22;11982;50.810;4.442;2022-09-03T08:03:33;22.40;99.90
23609;DHT22;11982;50.810;4.442;2022-09-03T08:06:01;22.40;99.90
23609;DHT22;11982;50.810;4.442;2022-09-03T08:08:27;22.60;99.90
23609;DHT22;11982;50.810;4.442;2022-09-03T08:10:53;22.60;99.90
23609;DHT22;11982;50.810;4.442;2022-09-03T08:13:19;22.90;99.90
23609;DHT22;11982;50.810;4.442;2022-09-03T08:15:54;23.40;99.90
23609;DHT22;11982;50.810;4.442;2022-09-03T08:18:21;23.40;99.90
23609;DHT22;11982;50.810;4.442;2022-09-03T08:20:47;23.70;99.90
23609;DHT22;11982;50.810;4.442;2022-09-03T08:23:13;23.70;99.90
23609;DHT22;11982;50.810;4.442;2022-09-03T08:25:39;23.50;99.90
23609;DHT22;11982;50.810;4.442;2022-09-03T08:28:04;24.00;99.90
23609;DHT22;11982;50.810;4.442;2022-09-03T08:30:30;24.30;99.90
23609;DHT22;11982;50.810;4.442;2022-09-03T08:32:56;24.10;99.90
23609;DHT22;11982;50.810;4.442;2022-09-03T08:35:21;24.40;99.90
23609;DHT22;11982;50.810;4.442;2022-09-03T08:37:48;24.40;99.90
23609;DHT22;11982;50.810;4.442;2022-09-03T08:40:18;24.10;99.90
23609;DHT22;11982;50.810;4.442;2022-09-03T08:42:57;24.60;99.90
23609;DHT22;11982;50.810;4.442;2022-09-03T08:45:31;24.60;99.90
23609;DHT22;11982;50.810;4.442;2022-09-03T08:48:08;24.40;99.90
23609;DHT22;11982;50.810;4.442;2022-09-03T08:50:54;24.10;99.90
23609;DHT22;11982;50.810;4.442;2022-09-03T08:53:38;24.10;99.90
23609;DHT22;11982;50.810;4.442;2022-09-03T08:56:10;24.30;99.90
23609;DHT22;11982;50.810;4.442;2022-09-03T08:58:37;24.60;99.90
23609;DHT22;11982;50.810;4.442;2022-09-03T09:06:45;24.30;99.90
23609;DHT22;11982;50.810;4.442;2022-09-03T09:17:29;24.90;99.90
23609;DHT22;11982;50.810;4.442;2022-09-03T09:22:56;25.00;99.90
23609;DHT22;11982;50.810;4.442;2022-09-03T09:25:23;25.40;99.90
23609;DHT22;11982;50.810;4.442;2022-09-03T09:28:02;25.30;99.90
23609;DHT22;11982;50.810;4.442;2022-09-03T09:30:31;25.40;99.90
23609;DHT22;11982;50.810;4.442;2022-09-03T09:32:56;25.10;99.90
23609;DHT22;11982;50.810;4.442;2022-09-03T09:35:23;25.30;99.90
23609;DHT22;11982;50.810;4.442;2022-09-03T09:37:54;25.50;99.90
23609;DHT22;11982;50.810;4.442;2022-09-03T09:42:49;25.70;99.90
23609;DHT22;11982;50.810;4.442;2022-09-03T09:45:16;25.60;99.90
23609;DHT22;11982;50.810;4.442;2022-09-03T09:47:42;25.40;99.90
23609;DHT22;11982;50.810;4.442;2022-09-03T09:50:19;25.40;99.90
23609;DHT22;11982;50.810;4.442;2022-09-03T09:52:46;25.30;99.90
23609;DHT22;11982;50.810;4.442;2022-09-03T09:55:17;25.50;99.90
23609;DHT22;11982;50.810;4.442;2022-09-03T09:57:44;25.80;99.90
23609;DHT22;11982;50.810;4.442;2022-09-03T10:00:12;26.10;99.90
23609;DHT22;11982;50.810;4.442;2022-09-03T10:02:59;26.20;99.90
23609;DHT22;11982;50.810;4.442;2022-09-03T10:05:30;25.70;99.90
23609;DHT22;11982;50.810;4.442;2022-09-03T10:08:03;25.70;99.90
23609;DHT22;11982;50.810;4.442;2022-09-03T10:10:44;25.80;99.90
23609;DHT22;11982;50.810;4.442;2022-09-03T10:13:18;26.10;99.90
23609;DHT22;11982;50.810;4.442;2022-09-03T10:18:41;26.20;99.90
23609;DHT22;11982;50.810;4.442;2022-09-03T10:26:34;27.00;99.90
23609;DHT22;11982;50.810;4.442;2022-09-03T10:29:02;26.60;99.90
23609;DHT22;11982;50.810;4.442;2022-09-03T10:31:57;26.50;99.90
23609;DHT22;11982;50.810;4.442;2022-09-03T10:37:38;26.60;99.90
23609;DHT22;11982;50.810;4.442;2022-09-03T10:57:11;27.40;99.90
23609;DHT22;11982;50.810;4.442;2022-09-03T11:08:26;27.10;99.90
23609;DHT22;11982;50.810;4.442;2022-09-03T11:11:04;27.00;99.90
23609;DHT22;11982;50.810;4.442;2022-09-03T11:13:39;27.50;99.90
23609;DHT22;11982;50.810;4.442;2022-09-03T11:16:31;27.30;99.90
23609;DHT22;11982;50.810;4.442;2022-09-03T11:19:06;26.80;99.90
23609;DHT22;11982;50.810;4.442;2022-09-03T11:21:34;26.80;99.90
23609;DHT22;11982;50.810;4.442;2022-09-03T11:24:22;27.20;99.90
23609;DHT22;11982;50.810;4.442;2022-09-03T11:30:04;27.00;99.90
23609;DHT22;11982;50.810;4.442;2022-09-03T11:35:00;26.40;99.90
23609;DHT22;11982;50.810;4.442;2022-09-03T11:37:29;25.40;99.90
23609;DHT22;11982;50.810;4.442;2022-09-03T11:42:37;25.00;99.90
23609;DHT22;11982;50.810;4.442;2022-09-03T11:47:53;25.00;99.90
23609;DHT22;11982;50.810;4.442;2022-09-03T11:52:52;25.20;99.90
23609;DHT22;11982;50.810;4.442;2022-09-03T11:55:30;25.00;99.90
23609;DHT22;11982;50.810;4.442;2022-09-03T11:57:56;24.90;99.90
23609;DHT22;11982;50.810;4.442;2022-09-03T12:00:23;24.60;99.90
23609;DHT22;11982;50.810;4.442;2022-09-03T12:02:59;24.90;99.90
23609;DHT22;11982;50.810;4.442;2022-09-03T12:13:35;27.40;99.90
23609;DHT22;11982;50.810;4.442;2022-09-03T12:19:02;28.40;99.90
23609;DHT22;11982;50.810;4.442;2022-09-03T12:21:37;28.80;99.90
23609;DHT22;11982;50.810;4.442;2022-09-03T12:24:02;29.50;99.90
23609;DHT22;11982;50.810;4.442;2022-09-03T12:26:28;30.10;99.90
23609;DHT22;11982;50.810;4.442;2022-09-03T12:28:56;30.00;99.90
23609;DHT22;11982;50.810;4.442;2022-09-03T12:31:24;30.20;99.90
23609;DHT22;11982;50.810;4.442;2022-09-03T12:33:57;30.00;99.90
23609;DHT22;11982;50.810;4.442;2022-09-03T12:36:24;29.70;99.90
23609;DHT22;11982;50.810;4.442;2022-09-03T12:38:51;29.50;99.90
23609;DHT22;11982;50.810;4.442;2022-09-03T12:41:28;29.70;99.90
23609;DHT22;11982;50.810;4.442;2022-09-03T12:43:58;29.60;99.90
23609;DHT22;11982;50.810;4.442;2022-09-03T12:46:27;30.10;99.90
23609;DHT22;11982;50.810;4.442;2022-09-03T12:49:00;30.30;99.90
23609;DHT22;11982;50.810;4.442;2022-09-03T12:51:38;30.80;99.90
23609;DHT22;11982;50.810;4.442;2022-09-03T12:54:09;31.00;99.90
23609;DHT22;11982;50.810;4.442;2022-09-03T12:56:42;30.60;99.90
23609;DHT22;11982;50.810;4.442;2022-09-03T12:59:13;30.70;99.90
23609;DHT22;11982;50.810;4.442;2022-09-03T13:01:50;30.60;99.90
23609;DHT22;11982;50.810;4.442;2022-09-03T13:04:36;30.90;99.90
23609;DHT22;11982;50.810;4.442;2022-09-03T13:07:19;30.70;99.90
23609;DHT22;11982;50.810;4.442;2022-09-03T13:09:45;29.80;99.90
23609;DHT22;11982;50.810;4.442;2022-09-03T13:12:32;29.10;99.90
23609;DHT22;11982;50.810;4.442;2022-09-03T13:15:05;29.30;99.90
23609;DHT22;11982;50.810;4.442;2022-09-03T13:17:47;29.20;99.90
23609;DHT22;11982;50.810;4.442;2022-09-03T13:26:26;29.40;99.90
23609;DHT22;11982;50.810;4.442;2022-09-03T13:31:50;28.50;99.90
23609;DHT22;11982;50.810;4.442;2022-09-03T13:34:45;29.00;99.90
23609;DHT22;11982;50.810;4.442;2022-09-03T13:37:26;29.20;99.90
23609;DHT22;11982;50.810;4.442;2022-09-03T13:43:18;29.90;99.90
23609;DHT22;11982;50.810;4.442;2022-09-03T13:45:53;30.10;99.90
23609;DHT22;11982;50.810;4.442;2022-09-03T13:48:40;30.50;99.90
23609;DHT22;11982;50.810;4.442;2022-09-03T13:51:36;30.90;99.90
23609;DHT22;11982;50.810;4.442;2022-09-03T13:54:23;30.80;99.90
23609;DHT22;11982;50.810;4.442;2022-09-03T13:57:04;29.30;99.90
23609;DHT22;11982;50.810;4.442;2022-09-03T14:05:33;29.00;99.90
23609;DHT22;11982;50.810;4.442;2022-09-03T14:16:34;29.50;99.90
23609;DHT22;11982;50.810;4.442;2022-09-03T14:19:18;29.20;99.90
23609;DHT22;11982;50.810;4.442;2022-09-03T14:21:51;29.30;99.90
23609;DHT22;11982;50.810;4.442;2022-09-03T14:24:27;29.10;99.90
23609;DHT22;11982;50.810;4.442;2022-09-03T14:26:56;28.90;99.90
23609;DHT22;11982;50.810;4.442;2022-09-03T14:29:27;29.20;99.90
23609;DHT22;11982;50.810;4.442;2022-09-03T14:40:45;29.60;99.90
23609;DHT22;11982;50.810;4.442;2022-09-03T14:48:45;28.70;99.90
23609;DHT22;11982;50.810;4.442;2022-09-03T14:51:32;28.90;99.90
23609;DHT22;11982;50.810;4.442;2022-09-03T14:56:53;29.40;99.90
23609;DHT22;11982;50.810;4.442;2022-09-03T15:07:52;30.10;99.90
23609;DHT22;11982;50.810;4.442;2022-09-03T15:10:46;30.20;99.90
23609;DHT22;11982;50.810;4.442;2022-09-03T15:13:16;30.10;99.90
23609;DHT22;11982;50.810;4.442;2022-09-03T15:26:55;29.50;99.90
23609;DHT22;11982;50.810;4.442;2022-09-03T15:35:59;28.80;99.90
23609;DHT22;11982;50.810;4.442;2022-09-03T15:40:50;28.20;99.90
23609;DHT22;11982;50.810;4.442;2022-09-03T15:43:26;27.20;99.90
23609;DHT22;11982;50.810;4.442;2022-09-03T15:46:02;26.70;99.90
23609;DHT22;11982;50.810;4.442;2022-09-03T15:48:50;26.80;99.90
23609;DHT22;11982;50.810;4.442;2022-09-03T15:51:54;26.40;99.90
23609;DHT22;11982;50.810;4.442;2022-09-03T15:54:20;26.50;99.90
23609;DHT22;11982;50.810;4.442;2022-09-03T15:56:58;26.40;99.90
23609;DHT22;11982;50.810;4.442;2022-09-03T16:03:08;26.40;99.90
23609;DHT22;11982;50.810;4.442;2022-09-03T16:05:48;26.10;99.90
23609;DHT22;11982;50.810;4.442;2022-09-03T16:08:31;26.10;99.90
23609;DHT22;11982;50.810;4.442;2022-09-03T16:16:30;25.60;99.90
23609;DHT22;11982;50.810;4.442;2022-09-03T16:19:29;25.60;99.90
23609;DHT22;11982;50.810;4.442;2022-09-03T16:22:17;25.90;99.90
23609;DHT22;11982;50.810;4.442;2022-09-03T16:24:59;26.30;99.90
23609;DHT22;11982;50.810;4.442;2022-09-03T16:30:00;26.40;99.90
23609;DHT22;11982;50.810;4.442;2022-09-03T16:38:05;26.50;99.90
23609;DHT22;11982;50.810;4.442;2022-09-03T16:40:56;26.60;99.90
23609;DHT22;11982;50.810;4.442;2022-09-03T16:46:24;26.80;99.90
23609;DHT22;11982;50.810;4.442;2022-09-03T16:51:38;26.40;99.90
23609;DHT22;11982;50.810;4.442;2022-09-03T16:57:07;26.20;99.90
23609;DHT22;11982;50.810;4.442;2022-09-03T17:05:19;26.10;99.90
23609;DHT22;11982;50.810;4.442;2022-09-03T17:10:37;25.90;99.90
23609;DHT22;11982;50.810;4.442;2022-09-03T17:21:36;25.50;99.90
23609;DHT22;11982;50.810;4.442;2022-09-03T17:24:28;25.40;99.90
23609;DHT22;11982;50.810;4.442;2022-09-03T17:30:13;25.10;99.90
23609;DHT22;11982;50.810;4.442;2022-09-03T17:33:06;25.30;99.90
23609;DHT22;11982;50.810;4.442;2022-09-03T17:41:34;25.00;99.90
23609;DHT22;11982;50.810;4.442;2022-09-03T17:44:14;25.00;99.90
23609;DHT22;11982;50.810;4.442;2022-09-03T17:49:28;24.60;99.90
23609;DHT22;11982;50.810;4.442;2022-09-03T17:52:12;24.60;99.90
23609;DHT22;11982;50.810;4.442;2022-09-03T17:54:48;24.40;99.90
23609;DHT22;11982;50.810;4.442;2022-09-03T18:05:27;23.70;99.90
23609;DHT22;11982;50.810;4.442;2022-09-03T18:08:06;23.70;99.90
23609;DHT22;11982;50.810;4.442;2022-09-03T18:13:54;23.40;99.90
23609;DHT22;11982;50.810;4.442;2022-09-03T18:16:32;23.30;99.90
23609;DHT22;11982;50.810;4.442;2022-09-03T18:19:17;23.30;99.90
23609;DHT22;11982;50.810;4.442;2022-09-03T18:21:57;23.30;99.90
23609;DHT22;11982;50.810;4.442;2022-09-03T18:24:48;23.20;99.90
23609;DHT22;11982;50.810;4.442;2022-09-03T18:27:49;22.90;99.90
23609;DHT22;11982;50.810;4.442;2022-09-03T18:30:34;23.00;99.90
23609;DHT22;11982;50.810;4.442;2022-09-03T18:33:23;23.00;99.90
23609;DHT22;11982;50.810;4.442;2022-09-03T18:36:08;22.80;99.90
23609;DHT22;11982;50.810;4.442;2022-09-03T18:39:00;22.80;99.90
23609;DHT22;11982;50.810;4.442;2022-09-03T18:45:16;22.50;99.90
23609;DHT22;11982;50.810;4.442;2022-09-03T18:54:29;21.90;99.90
23609;DHT22;11982;50.810;4.442;2022-09-03T18:57:24;22.00;99.90
23609;DHT22;11982;50.810;4.442;2022-09-03T19:00:12;21.90;99.90
23609;DHT22;11982;50.810;4.442;2022-09-03T19:09:44;21.80;99.90
23609;DHT22;11982;50.810;4.442;2022-09-03T19:12:48;21.80;99.90
23609;DHT22;11982;50.810;4.442;2022-09-03T19:24:29;21.40;99.90
23609;DHT22;11982;50.810;4.442;2022-09-03T19:30:26;21.40;99.90
23609;DHT22;11982;50.810;4.442;2022-09-03T19:33:35;21.40;99.90
23609;DHT22;11982;50.810;4.442;2022-09-03T19:36:38;21.10;99.90
23609;DHT22;11982;50.810;4.442;2022-09-03T19:45:29;20.90;99.90
23609;DHT22;11982;50.810;4.442;2022-09-03T19:51:37;20.80;99.90
23609;DHT22;11982;50.810;4.442;2022-09-03T19:54:23;20.70;99.90
23609;DHT22;11982;50.810;4.442;2022-09-03T19:57:10;20.70;99.90
23609;DHT22;11982;50.810;4.442;2022-09-03T19:59:56;20.50;99.90
23609;DHT22;11982;50.810;4.442;2022-09-03T20:02:41;20.40;99.90
23609;DHT22;11982;50.810;4.442;2022-09-03T20:05:29;20.10;99.90
23609;DHT22;11982;50.810;4.442;2022-09-03T20:08:15;20.10;99.90
23609;DHT22;11982;50.810;4.442;2022-09-03T20:11:01;19.90;99.90
23609;DHT22;11982;50.810;4.442;2022-09-03T20:13:27;19.90;99.90
23609;DHT22;11982;50.810;4.442;2022-09-03T20:21:49;19.80;99.90
23609;DHT22;11982;50.810;4.442;2022-09-03T20:30:06;19.50;99.90
23609;DHT22;11982;50.810;4.442;2022-09-03T20:35:38;19.20;99.90
23609;DHT22;11982;50.810;4.442;2022-09-03T20:41:12;19.00;99.90
23609;DHT22;11982;50.810;4.442;2022-09-03T20:52:35;18.80;99.90
23609;DHT22;11982;50.810;4.442;2022-09-03T21:03:29;18.80;99.90
23609;DHT22;11982;50.810;4.442;2022-09-03T21:06:10;18.60;99.90
23609;DHT22;11982;50.810;4.442;2022-09-03T21:11:29;18.60;99.90
23609;DHT22;11982;50.810;4.442;2022-09-03T21:14:21;18.70;99.90
23609;DHT22;11982;50.810;4.442;2022-09-03T21:19:40;18.40;99.90
23609;DHT22;11982;50.810;4.442;2022-09-03T21:22:32;18.40;99.90
23609;DHT22;11982;50.810;4.442;2022-09-03T21:25:04;18.40;99.90
23609;DHT22;11982;50.810;4.442;2022-09-03T21:27:36;18.40;99.90
23609;DHT22;11982;50.810;4.442;2022-09-03T21:30:08;18.30;99.90
23609;DHT22;11982;50.810;4.442;2022-09-03T21:32:43;18.30;99.90
23609;DHT22;11982;50.810;4.442;2022-09-03T21:35:52;18.40;99.90
23609;DHT22;11982;50.810;4.442;2022-09-03T21:38:25;18.40;99.90
23609;DHT22;11982;50.810;4.442;2022-09-03T21:46:17;18.40;99.90
23609;DHT22;11982;50.810;4.442;2022-09-03T21:49:01;18.40;99.90
23609;DHT22;11982;50.810;4.442;2022-09-03T21:51:40;18.40;99.90
23609;DHT22;11982;50.810;4.442;2022-09-03T21:54:20;18.30;99.90
23609;DHT22;11982;50.810;4.442;2022-09-03T22:04:28;18.30;99.90
23609;DHT22;11982;50.810;4.442;2022-09-03T22:09:33;18.10;99.90
23609;DHT22;11982;50.810;4.442;2022-09-03T22:14:45;18.10;99.90
23609;DHT22;11982;50.810;4.442;2022-09-03T22:20:21;17.90;99.90
23609;DHT22;11982;50.810;4.442;2022-09-03T22:23:15;17.90;99.90
23609;DHT22;11982;50.810;4.442;2022-09-03T22:25:54;17.80;99.90
23609;DHT22;11982;50.810;4.442;2022-09-03T22:28:31;17.80;99.90
23609;DHT22;11982;50.810;4.442;2022-09-03T22:33:43;17.80;99.90
23609;DHT22;11982;50.810;4.442;2022-09-03T22:36:20;17.90;99.90
23609;DHT22;11982;50.810;4.442;2022-09-03T22:41:42;17.90;99.90
23609;DHT22;11982;50.810;4.442;2022-09-03T22:50:17;17.80;99.90
23609;DHT22;11982;50.810;4.442;2022-09-03T22:52:43;17.80;99.90